sensor_id;sensor_type;location;lat;lon;timestamp;temperature;humidity
8220;DHT22;4151;51.110;7.020;2022-09-09T00:03:55;16.70;99.90
8220;DHT22;4151;51.110;7.020;2022-09-09T00:06:31;16.60;99.90
8220;DHT22;4151;51.110;7.020;2022-09-09T00:09:05;16.50;99.90
8220;DHT22;4151;51.110;7.020;2022-09-09T00:11:37;16.40;99.90
8220;DHT22;4151;51.110;7.020;2022-09-09T00:14:54;16.40;99.90
8220;DHT22;4151;51.110;7.020;2022-09-09T00:16:57;16.40;99.90
8220;DHT22;4151;51.110;7.020;2022-09-09T00:19:56;16.30;99.90
8220;DHT22;4151;51.110;7.020;2022-09-09T00:22:28;16.30;99.90
8220;DHT22;4151;51.110;7.020;2022-09-09T00:25:08;16.30;99.90
8220;DHT22;4151;51.110;7.020;2022-09-09T00:27:48;16.30;99.90
8220;DHT22;4151;51.110;7.020;2022-09-09T00:30:23;16.20;99.90
8220;DHT22;4151;51.110;7.020;2022-09-09T00:32:58;16.30;99.90
8220;DHT22;4151;51.110;7.020;2022-09-09T00:35:36;16.30;99.90
8220;DHT22;4151;51.110;7.020;2022-09-09T00:38:12;16.30;99.90
8220;DHT22;4151;51.110;7.020;2022-09-09T00:43:32;16.30;99.90
8220;DHT22;4151;51.110;7.020;2022-09-09T00:57:14;16.40;99.90
8220;DHT22;4151;51.110;7.020;2022-09-09T00:59:48;16.40;99.90
8220;DHT22;4151;51.110;7.020;2022-09-09T01:04:44;16.30;99.90
8220;DHT22;4151;51.110;7.020;2022-09-09T01:07:17;16.30;99.90
8220;DHT22;4151;51.110;7.020;2022-09-09T01:10:00;16.30;99.90
8220;DHT22;4151;51.110;7.020;2022-09-09T01:12:41;16.30;99.90
8220;DHT22;4151;51.110;7.020;2022-09-09T01:15:26;16.20;99.90
8220;DHT22;4151;51.110;7.020;2022-09-09T01:18:00;16.20;99.90
8220;DHT22;4151;51.110;7.020;2022-09-09T01:21:19;16.20;99.90
8220;DHT22;4151;51.110;7.020;2022-09-09T01:23:44;16.20;99.90
8220;DHT22;4151;51.110;7.020;2022-09-09T01:29:08;16.20;99.90
8220;DHT22;4151;51.110;7.020;2022-09-09T01:31:53;16.20;99.90
8220;DHT22;4151;51.110;7.020;2022-09-09T01:34:20;16.20;99.90
8220;DHT22;4151;51.110;7.020;2022-09-09T01:37:00;16.10;99.90
8220;DHT22;4151;51.110;7.020;2022-09-09T01:39:27;16.00;99.90
8220;DHT22;4151;51.110;7.020;2022-09-09T01:41:53;15.90;99.90
8220;DHT22;4151;51.110;7.020;2022-09-09T01:44:20;15.90;99.90
8220;DHT22;4151;51.110;7.020;2022-09-09T01:46:46;15.80;99.90
8220;DHT22;4151;51.110;7.020;2022-09-09T01:49:12;15.80;99.90
8220;DHT22;4151;51.110;7.020;2022-09-09T01:51:39;15.80;99.90
8220;DHT22;4151;51.110;7.020;2022-09-09T01:54:07;15.80;99.90
8220;DHT22;4151;51.110;7.020;2022-09-09T01:56:46;15.90;99.90
8220;DHT22;4151;51.110;7.020;2022-09-09T02:05:06;16.00;99.90
8220;DHT22;4151;51.110;7.020;2022-09-09T02:07:41;16.10;99.90
8220;DHT22;4151;51.110;7.020;2022-09-09T02:10:20;16.20;99.90
8220;DHT22;4151;51.110;7.020;2022-09-09T02:13:12;16.20;99.90
8220;DHT22;4151;51.110;7.020;2022-09-09T02:21:07;16.20;99.90
8220;DHT22;4151;51.110;7.020;2022-09-09T02:23:36;16.30;99.90
8220;DHT22;4151;51.110;7.020;2022-09-09T02:26:03;16.40;99.90
8220;DHT22;4151;51.110;7.020;2022-09-09T02:28:31;16.40;99.90
8220;DHT22;4151;51.110;7.020;2022-09-09T02:30:57;16.40;99.90
8220;DHT22;4151;51.110;7.020;2022-09-09T02:33:30;16.40;99.90
8220;DHT22;4151;51.110;7.020;2022-09-09T02:35:58;16.40;99.90
8220;DHT22;4151;51.110;7.020;2022-09-09T02:38:30;16.40;99.90
8220;DHT22;4151;51.110;7.020;2022-09-09T02:40:58;16.40;99.90
8220;DHT22;4151;51.110;7.020;2022-09-09T02:43:24;16.40;99.90
8220;DHT22;4151;51.110;7.020;2022-09-09T02:48:40;16.40;99.90
8220;DHT22;4151;51.110;7.020;2022-09-09T02:54:10;16.40;99.90
8220;DHT22;4151;51.110;7.020;2022-09-09T02:56:41;16.40;99.90
8220;DHT22;4151;51.110;7.020;2022-09-09T02:59:09;16.40;99.90
8220;DHT22;4151;51.110;7.020;2022-09-09T03:01:35;16.50;99.90
8220;DHT22;4151;51.110;7.020;2022-09-09T03:04:02;16.50;99.90
8220;DHT22;4151;51.110;7.020;2022-09-09T03:06:30;16.50;99.90
8220;DHT22;4151;51.110;7.020;2022-09-09T03:08:56;16.50;99.90
8220;DHT22;4151;51.110;7.020;2022-09-09T03:11:26;16.50;99.90
8220;DHT22;4151;51.110;7.020;2022-09-09T03:13:53;16.50;99.90
8220;DHT22;4151;51.110;7.020;2022-09-09T03:16:20;16.50;99.90
8220;DHT22;4151;51.110;7.020;2022-09-09T03:18:46;16.50;99.90
8220;DHT22;4151;51.110;7.020;2022-09-09T03:21:12;16.50;99.90
8220;DHT22;4151;51.110;7.020;2022-09-09T03:23:37;16.40;99.90
8220;DHT22;4151;51.110;7.020;2022-09-09T03:26:03;16.50;99.90
8220;DHT22;4151;51.110;7.020;2022-09-09T03:28:29;16.40;99.90
8220;DHT22;4151;51.110;7.020;2022-09-09T03:31:00;16.40;99.90
8220;DHT22;4151;51.110;7.020;2022-09-09T03:33:25;16.40;99.90
8220;DHT22;4151;51.110;7.020;2022-09-09T03:35:51;16.30;99.90
8220;DHT22;4151;51.110;7.020;2022-09-09T03:38:17;16.30;99.90
8220;DHT22;4151;51.110;7.020;2022-09-09T03:40:53;16.30;99.90
8220;DHT22;4151;51.110;7.020;2022-09-09T03:43:24;16.30;99.90
8220;DHT22;4151;51.110;7.020;2022-09-09T03:45:50;16.20;99.90
8220;DHT22;4151;51.110;7.020;2022-09-09T03:48:17;16.20;99.90
8220;DHT22;4151;51.110;7.020;2022-09-09T03:50:50;16.20;99.90
8220;DHT22;4151;51.110;7.020;2022-09-09T03:53:17;16.20;99.90
8220;DHT22;4151;51.110;7.020;2022-09-09T03:55:51;16.20;99.90
8220;DHT22;4151;51.110;7.020;2022-09-09T03:58:22;16.20;99.90
8220;DHT22;4151;51.110;7.020;2022-09-09T04:00:57;16.20;99.90
8220;DHT22;4151;51.110;7.020;2022-09-09T04:03:23;16.20;99.90
8220;DHT22;4151;51.110;7.020;2022-09-09T04:05:53;16.30;99.90
8220;DHT22;4151;51.110;7.020;2022-09-09T04:08:20;16.30;99.90
8220;DHT22;4151;51.110;7.020;2022-09-09T04:10:47;16.20;99.90
8220;DHT22;4151;51.110;7.020;2022-09-09T04:13:14;16.20;99.90
8220;DHT22;4151;51.110;7.020;2022-09-09T04:15:41;16.30;99.90
8220;DHT22;4151;51.110;7.020;2022-09-09T04:18:07;16.30;99.90
8220;DHT22;4151;51.110;7.020;2022-09-09T04:20:33;16.30;99.90
8220;DHT22;4151;51.110;7.020;2022-09-09T04:22:59;16.30;99.90
8220;DHT22;4151;51.110;7.020;2022-09-09T04:25:25;16.30;99.90
8220;DHT22;4151;51.110;7.020;2022-09-09T04:27:57;16.40;99.90
8220;DHT22;4151;51.110;7.020;2022-09-09T04:30:24;16.30;99.90
8220;DHT22;4151;51.110;7.020;2022-09-09T04:32:50;16.40;99.90
8220;DHT22;4151;51.110;7.020;2022-09-09T04:35:16;16.40;99.90
8220;DHT22;4151;51.110;7.020;2022-09-09T04:37:42;16.40;99.90
8220;DHT22;4151;51.110;7.020;2022-09-09T04:40:08;16.40;99.90
8220;DHT22;4151;51.110;7.020;2022-09-09T04:42:37;16.40;99.90
8220;DHT22;4151;51.110;7.020;2022-09-09T04:45:03;16.40;99.90
8220;DHT22;4151;51.110;7.020;2022-09-09T04:47:29;16.40;99.90
8220;DHT22;4151;51.110;7.020;2022-09-09T04:49:54;16.40;99.90
8220;DHT22;4151;51.110;7.020;2022-09-09T04:52:20;16.40;99.90
8220;DHT22;4151;51.110;7.020;2022-09-09T04:54:46;16.40;99.90
8220;DHT22;4151;51.110;7.020;2022-09-09T04:57:12;16.40;99.90
8220;DHT22;4151;51.110;7.020;2022-09-09T04:59:38;16.40;99.90
8220;DHT22;4151;51.110;7.020;2022-09-09T05:02:04;16.40;99.90
8220;DHT22;4151;51.110;7.020;2022-09-09T05:04:30;16.40;99.90
8220;DHT22;4151;51.110;7.020;2022-09-09T05:06:56;16.40;99.90
8220;DHT22;4151;51.110;7.020;2022-09-09T05:09:21;16.50;99.90
8220;DHT22;4151;51.110;7.020;2022-09-09T05:11:47;16.50;99.90
8220;DHT22;4151;51.110;7.020;2022-09-09T05:14:13;16.50;99.90
8220;DHT22;4151;51.110;7.020;2022-09-09T05:16:40;16.40;99.90
8220;DHT22;4151;51.110;7.020;2022-09-09T05:19:05;16.40;99.90
8220;DHT22;4151;51.110;7.020;2022-09-09T05:21:33;16.50;99.90
8220;DHT22;4151;51.110;7.020;2022-09-09T05:23:59;16.50;99.90
8220;DHT22;4151;51.110;7.020;2022-09-09T05:26:26;16.50;99.90
8220;DHT22;4151;51.110;7.020;2022-09-09T05:28:51;16.50;99.90
8220;DHT22;4151;51.110;7.020;2022-09-09T05:31:18;16.50;99.90
8220;DHT22;4151;51.110;7.020;2022-09-09T05:33:45;16.50;99.90
8220;DHT22;4151;51.110;7.020;2022-09-09T05:36:13;16.60;99.90
8220;DHT22;4151;51.110;7.020;2022-09-09T05:38:40;16.60;99.90
8220;DHT22;4151;51.110;7.020;2022-09-09T05:41:06;16.60;99.90
8220;DHT22;4151;51.110;7.020;2022-09-09T05:43:32;16.60;99.90
8220;DHT22;4151;51.110;7.020;2022-09-09T05:46:02;16.60;99.90
8220;DHT22;4151;51.110;7.020;2022-09-09T05:48:33;16.60;99.90
8220;DHT22;4151;51.110;7.020;2022-09-09T05:50:59;16.60;99.90
8220;DHT22;4151;51.110;7.020;2022-09-09T05:53:26;16.50;99.90
8220;DHT22;4151;51.110;7.020;2022-09-09T05:56:03;16.50;99.90
8220;DHT22;4151;51.110;7.020;2022-09-09T05:58:30;16.50;99.90
8220;DHT22;4151;51.110;7.020;2022-09-09T06:01:09;16.50;99.90
8220;DHT22;4151;51.110;7.020;2022-09-09T06:03:36;16.50;99.90
8220;DHT22;4151;51.110;7.020;2022-09-09T06:06:07;16.40;99.90
8220;DHT22;4151;51.110;7.020;2022-09-09T06:08:35;16.40;99.90
8220;DHT22;4151;51.110;7.020;2022-09-09T06:11:08;16.40;99.90
8220;DHT22;4151;51.110;7.020;2022-09-09T06:13:34;16.40;99.90
8220;DHT22;4151;51.110;7.020;2022-09-09T06:16:00;16.30;99.90
8220;DHT22;4151;51.110;7.020;2022-09-09T06:18:26;16.40;99.90
8220;DHT22;4151;51.110;7.020;2022-09-09T06:21:00;16.40;99.90
8220;DHT22;4151;51.110;7.020;2022-09-09T06:23:27;16.40;99.90
8220;DHT22;4151;51.110;7.020;2022-09-09T06:28:32;16.50;99.90
8220;DHT22;4151;51.110;7.020;2022-09-09T06:31:03;16.50;99.90
8220;DHT22;4151;51.110;7.020;2022-09-09T06:33:34;16.50;99.90
8220;DHT22;4151;51.110;7.020;2022-09-09T06:36:02;16.60;99.90
8220;DHT22;4151;51.110;7.020;2022-09-09T06:38:31;16.60;99.90
8220;DHT22;4151;51.110;7.020;2022-09-09T06:40:59;16.60;99.90
8220;DHT22;4151;51.110;7.020;2022-09-09T06:43:25;16.70;99.90
8220;DHT22;4151;51.110;7.020;2022-09-09T06:45:56;16.70;99.90
8220;DHT22;4151;51.110;7.020;2022-09-09T06:48:22;16.70;99.90
8220;DHT22;4151;51.110;7.020;2022-09-09T06:50:47;16.70;99.90
8220;DHT22;4151;51.110;7.020;2022-09-09T06:53:17;16.70;99.90
8220;DHT22;4151;51.110;7.020;2022-09-09T06:55:44;16.70;99.90
8220;DHT22;4151;51.110;7.020;2022-09-09T06:58:10;16.80;99.90
8220;DHT22;4151;51.110;7.020;2022-09-09T07:00:36;16.80;99.90
8220;DHT22;4151;51.110;7.020;2022-09-09T07:03:04;17.00;99.90
8220;DHT22;4151;51.110;7.020;2022-09-09T07:05:30;17.10;99.90
8220;DHT22;4151;51.110;7.020;2022-09-09T07:07:56;17.20;99.90
8220;DHT22;4151;51.110;7.020;2022-09-09T07:10:21;17.40;99.90
8220;DHT22;4151;51.110;7.020;2022-09-09T07:12:51;17.50;99.90
8220;DHT22;4151;51.110;7.020;2022-09-09T07:15:17;17.70;99.90
8220;DHT22;4151;51.110;7.020;2022-09-09T07:17:44;17.80;99.90
8220;DHT22;4151;51.110;7.020;2022-09-09T07:20:10;17.80;99.90
8220;DHT22;4151;51.110;7.020;2022-09-09T07:22:36;17.90;99.90
8220;DHT22;4151;51.110;7.020;2022-09-09T07:25:02;17.90;99.90
8220;DHT22;4151;51.110;7.020;2022-09-09T07:27:28;18.00;99.90
8220;DHT22;4151;51.110;7.020;2022-09-09T07:29:54;18.10;99.90
8220;DHT22;4151;51.110;7.020;2022-09-09T07:32:19;18.20;99.90
8220;DHT22;4151;51.110;7.020;2022-09-09T07:34:46;18.20;99.90
8220;DHT22;4151;51.110;7.020;2022-09-09T07:37:12;18.30;99.90
8220;DHT22;4151;51.110;7.020;2022-09-09T07:39:39;18.40;99.90
8220;DHT22;4151;51.110;7.020;2022-09-09T07:42:05;18.40;99.90
8220;DHT22;4151;51.110;7.020;2022-09-09T07:44:31;18.50;99.90
8220;DHT22;4151;51.110;7.020;2022-09-09T07:47:00;18.50;99.90
8220;DHT22;4151;51.110;7.020;2022-09-09T07:49:26;18.40;99.90
8220;DHT22;4151;51.110;7.020;2022-09-09T07:51:52;18.30;99.90
8220;DHT22;4151;51.110;7.020;2022-09-09T07:54:19;18.30;99.90
8220;DHT22;4151;51.110;7.020;2022-09-09T07:56:49;18.30;99.90
8220;DHT22;4151;51.110;7.020;2022-09-09T07:59:15;18.40;99.90
8220;DHT22;4151;51.110;7.020;2022-09-09T08:01:59;18.50;99.90
8220;DHT22;4151;51.110;7.020;2022-09-09T08:04:25;18.60;99.90
8220;DHT22;4151;51.110;7.020;2022-09-09T08:06:57;18.70;99.90
8220;DHT22;4151;51.110;7.020;2022-09-09T08:09:24;18.80;99.90
8220;DHT22;4151;51.110;7.020;2022-09-09T08:11:52;18.90;99.90
8220;DHT22;4151;51.110;7.020;2022-09-09T08:14:18;19.10;99.90
8220;DHT22;4151;51.110;7.020;2022-09-09T08:16:46;19.20;99.90
8220;DHT22;4151;51.110;7.020;2022-09-09T08:19:12;19.10;99.90
8220;DHT22;4151;51.110;7.020;2022-09-09T08:21:39;18.90;99.90
8220;DHT22;4151;51.110;7.020;2022-09-09T08:24:07;18.70;99.90
8220;DHT22;4151;51.110;7.020;2022-09-09T08:26:35;18.70;99.90
8220;DHT22;4151;51.110;7.020;2022-09-09T08:29:03;18.70;99.90
8220;DHT22;4151;51.110;7.020;2022-09-09T08:31:34;18.80;99.90
8220;DHT22;4151;51.110;7.020;2022-09-09T08:34:01;18.90;99.90
8220;DHT22;4151;51.110;7.020;2022-09-09T08:36:30;19.00;99.90
8220;DHT22;4151;51.110;7.020;2022-09-09T08:38:57;19.10;99.90
8220;DHT22;4151;51.110;7.020;2022-09-09T08:41:30;19.20;99.90
8220;DHT22;4151;51.110;7.020;2022-09-09T08:52:31;19.00;99.90
8220;DHT22;4151;51.110;7.020;2022-09-09T08:58:28;19.00;99.90
8220;DHT22;4151;51.110;7.020;2022-09-09T09:01:18;19.10;99.90
8220;DHT22;4151;51.110;7.020;2022-09-09T09:04:05;19.10;99.90
8220;DHT22;4151;51.110;7.020;2022-09-09T09:11:54;19.40;99.90
8220;DHT22;4151;51.110;7.020;2022-09-09T09:14:25;19.50;99.90
8220;DHT22;4151;51.110;7.020;2022-09-09T09:16:58;19.50;99.90
8220;DHT22;4151;51.110;7.020;2022-09-09T09:19:24;19.60;99.90
8220;DHT22;4151;51.110;7.020;2022-09-09T09:27:14;19.70;99.90
8220;DHT22;4151;51.110;7.020;2022-09-09T09:29:42;19.80;99.90
8220;DHT22;4151;51.110;7.020;2022-09-09T09:32:13;20.00;99.90
8220;DHT22;4151;51.110;7.020;2022-09-09T09:34:39;20.10;99.90
8220;DHT22;4151;51.110;7.020;2022-09-09T09:37:29;20.00;99.90
8220;DHT22;4151;51.110;7.020;2022-09-09T09:39:55;19.90;99.90
8220;DHT22;4151;51.110;7.020;2022-09-09T09:42:21;19.90;99.90
8220;DHT22;4151;51.110;7.020;2022-09-09T09:44:47;20.00;99.90
8220;DHT22;4151;51.110;7.020;2022-09-09T09:47:19;20.00;99.90
8220;DHT22;4151;51.110;7.020;2022-09-09T09:49:55;19.90;99.90
8220;DHT22;4151;51.110;7.020;2022-09-09T09:52:29;20.00;99.90
8220;DHT22;4151;51.110;7.020;2022-09-09T09:54:57;20.00;99.90
8220;DHT22;4151;51.110;7.020;2022-09-09T09:57:26;19.90;99.90
8220;DHT22;4151;51.110;7.020;2022-09-09T10:02:43;20.00;99.90
8220;DHT22;4151;51.110;7.020;2022-09-09T10:05:16;20.10;99.90
8220;DHT22;4151;51.110;7.020;2022-09-09T10:07:43;20.20;99.90
8220;DHT22;4151;51.110;7.020;2022-09-09T10:10:31;20.40;99.90
8220;DHT22;4151;51.110;7.020;2022-09-09T10:18:45;20.90;99.90
8220;DHT22;4151;51.110;7.020;2022-09-09T10:21:19;21.00;99.90
8220;DHT22;4151;51.110;7.020;2022-09-09T10:34:56;21.10;99.90
8220;DHT22;4151;51.110;7.020;2022-09-09T10:42:53;21.70;99.90
8220;DHT22;4151;51.110;7.020;2022-09-09T10:46:32;21.70;99.90
8220;DHT22;4151;51.110;7.020;2022-09-09T10:51:28;21.70;99.90
8220;DHT22;4151;51.110;7.020;2022-09-09T10:54:23;21.70;99.90
8220;DHT22;4151;51.110;7.020;2022-09-09T10:56:58;21.80;99.90
8220;DHT22;4151;51.110;7.020;2022-09-09T10:59:36;21.40;99.90
8220;DHT22;4151;51.110;7.020;2022-09-09T11:02:14;21.30;99.90
8220;DHT22;4151;51.110;7.020;2022-09-09T11:07:13;21.30;99.90
8220;DHT22;4151;51.110;7.020;2022-09-09T11:09:45;21.20;99.90
8220;DHT22;4151;51.110;7.020;2022-09-09T11:12:18;21.30;99.90
8220;DHT22;4151;51.110;7.020;2022-09-09T11:14:46;21.40;99.90
8220;DHT22;4151;51.110;7.020;2022-09-09T11:17:23;21.50;99.90
8220;DHT22;4151;51.110;7.020;2022-09-09T11:19:49;21.60;99.90
8220;DHT22;4151;51.110;7.020;2022-09-09T11:22:37;21.40;99.90
8220;DHT22;4151;51.110;7.020;2022-09-09T11:27:50;21.50;99.90
8220;DHT22;4151;51.110;7.020;2022-09-09T11:33:03;21.40;99.90
8220;DHT22;4151;51.110;7.020;2022-09-09T11:48:43;20.20;99.90
8220;DHT22;4151;51.110;7.020;2022-09-09T11:59:22;20.80;99.90
8220;DHT22;4151;51.110;7.020;2022-09-09T12:02:03;20.70;99.90
8220;DHT22;4151;51.110;7.020;2022-09-09T12:04:41;20.70;99.90
8220;DHT22;4151;51.110;7.020;2022-09-09T12:09:52;20.60;99.90
8220;DHT22;4151;51.110;7.020;2022-09-09T12:12:25;20.50;99.90
8220;DHT22;4151;51.110;7.020;2022-09-09T12:17:27;20.30;99.90
8220;DHT22;4151;51.110;7.020;2022-09-09T12:23:15;20.10;99.90
8220;DHT22;4151;51.110;7.020;2022-09-09T12:25:58;20.10;99.90
8220;DHT22;4151;51.110;7.020;2022-09-09T12:31:20;20.00;99.90
8220;DHT22;4151;51.110;7.020;2022-09-09T12:33:48;20.00;99.90
8220;DHT22;4151;51.110;7.020;2022-09-09T12:36:19;19.80;99.90
8220;DHT22;4151;51.110;7.020;2022-09-09T12:38:47;19.30;99.90
8220;DHT22;4151;51.110;7.020;2022-09-09T12:41:23;18.70;99.90
8220;DHT22;4151;51.110;7.020;2022-09-09T12:43:50;18.30;99.90
8220;DHT22;4151;51.110;7.020;2022-09-09T12:48:54;17.60;99.90
8220;DHT22;4151;51.110;7.020;2022-09-09T12:53:49;17.80;99.90
8220;DHT22;4151;51.110;7.020;2022-09-09T12:56:33;18.00;99.90
8220;DHT22;4151;51.110;7.020;2022-09-09T12:59:01;18.10;99.90
8220;DHT22;4151;51.110;7.020;2022-09-09T13:01:29;18.00;99.90
8220;DHT22;4151;51.110;7.020;2022-09-09T13:03:55;17.80;99.90
8220;DHT22;4151;51.110;7.020;2022-09-09T13:06:24;17.80;99.90
8220;DHT22;4151;51.110;7.020;2022-09-09T13:08:51;17.10;99.90
8220;DHT22;4151;51.110;7.020;2022-09-09T13:11:26;16.60;99.90
8220;DHT22;4151;51.110;7.020;2022-09-09T13:13:56;16.40;99.90
8220;DHT22;4151;51.110;7.020;2022-09-09T13:16:34;16.30;99.90
8220;DHT22;4151;51.110;7.020;2022-09-09T13:19:06;16.50;99.90
8220;DHT22;4151;51.110;7.020;2022-09-09T13:21:39;16.90;99.90
8220;DHT22;4151;51.110;7.020;2022-09-09T13:24:23;17.90;99.90
8220;DHT22;4151;51.110;7.020;2022-09-09T13:26:57;18.50;99.90
8220;DHT22;4151;51.110;7.020;2022-09-09T13:29:23;18.70;99.90
8220;DHT22;4151;51.110;7.020;2022-09-09T13:31:50;18.70;99.90
8220;DHT22;4151;51.110;7.020;2022-09-09T13:34:32;18.80;99.90
8220;DHT22;4151;51.110;7.020;2022-09-09T13:37:02;18.90;99.90
8220;DHT22;4151;51.110;7.020;2022-09-09T13:39:29;19.20;99.90
8220;DHT22;4151;51.110;7.020;2022-09-09T13:41:54;19.40;99.90
8220;DHT22;4151;51.110;7.020;2022-09-09T13:44:25;19.40;99.90
8220;DHT22;4151;51.110;7.020;2022-09-09T13:47:18;19.30;99.90
8220;DHT22;4151;51.110;7.020;2022-09-09T13:49:45;19.50;99.90
8220;DHT22;4151;51.110;7.020;2022-09-09T13:52:13;19.70;99.90
8220;DHT22;4151;51.110;7.020;2022-09-09T13:54:39;20.40;99.90
8220;DHT22;4151;51.110;7.020;2022-09-09T13:57:05;22.30;99.90
8220;DHT22;4151;51.110;7.020;2022-09-09T13:59:31;24.20;99.90
8220;DHT22;4151;51.110;7.020;2022-09-09T14:01:57;24.10;99.90
8220;DHT22;4151;51.110;7.020;2022-09-09T14:04:23;23.20;99.90
8220;DHT22;4151;51.110;7.020;2022-09-09T14:06:49;22.30;99.90
8220;DHT22;4151;51.110;7.020;2022-09-09T14:09:17;21.60;99.90
8220;DHT22;4151;51.110;7.020;2022-09-09T14:11:43;20.90;99.90
8220;DHT22;4151;51.110;7.020;2022-09-09T14:14:10;20.60;99.90
8220;DHT22;4151;51.110;7.020;2022-09-09T14:16:36;20.50;99.90
8220;DHT22;4151;51.110;7.020;2022-09-09T14:19:03;20.20;99.90
8220;DHT22;4151;51.110;7.020;2022-09-09T14:21:29;20.00;99.90
8220;DHT22;4151;51.110;7.020;2022-09-09T14:23:55;19.80;99.90
8220;DHT22;4151;51.110;7.020;2022-09-09T14:26:21;19.50;99.90
8220;DHT22;4151;51.110;7.020;2022-09-09T14:28:47;19.30;99.90
8220;DHT22;4151;51.110;7.020;2022-09-09T14:31:13;19.00;99.90
8220;DHT22;4151;51.110;7.020;2022-09-09T14:33:40;18.70;99.90
8220;DHT22;4151;51.110;7.020;2022-09-09T14:36:06;18.50;99.90
8220;DHT22;4151;51.110;7.020;2022-09-09T14:38:34;18.20;99.90
8220;DHT22;4151;51.110;7.020;2022-09-09T14:41:04;17.80;99.90
8220;DHT22;4151;51.110;7.020;2022-09-09T14:43:30;17.50;99.90
8220;DHT22;4151;51.110;7.020;2022-09-09T14:46:03;17.30;99.90
8220;DHT22;4151;51.110;7.020;2022-09-09T14:48:31;17.10;99.90
8220;DHT22;4151;51.110;7.020;2022-09-09T14:50:56;17.00;99.90
8220;DHT22;4151;51.110;7.020;2022-09-09T14:53:22;17.00;99.90
8220;DHT22;4151;51.110;7.020;2022-09-09T14:55:47;17.00;99.90
8220;DHT22;4151;51.110;7.020;2022-09-09T14:58:13;17.00;99.90
8220;DHT22;4151;51.110;7.020;2022-09-09T15:00:39;16.90;99.90
8220;DHT22;4151;51.110;7.020;2022-09-09T15:03:04;16.80;99.90
8220;DHT22;4151;51.110;7.020;2022-09-09T15:05:30;16.80;99.90
8220;DHT22;4151;51.110;7.020;2022-09-09T15:07:57;16.70;99.90
8220;DHT22;4151;51.110;7.020;2022-09-09T15:10:24;16.80;99.90
8220;DHT22;4151;51.110;7.020;2022-09-09T15:12:49;16.80;99.90
8220;DHT22;4151;51.110;7.020;2022-09-09T15:15:15;16.80;99.90
8220;DHT22;4151;51.110;7.020;2022-09-09T15:17:41;16.90;99.90
8220;DHT22;4151;51.110;7.020;2022-09-09T15:20:07;17.00;99.90
8220;DHT22;4151;51.110;7.020;2022-09-09T15:22:33;17.10;99.90
8220;DHT22;4151;51.110;7.020;2022-09-09T15:24:59;17.10;99.90
8220;DHT22;4151;51.110;7.020;2022-09-09T15:27:24;17.30;99.90
8220;DHT22;4151;51.110;7.020;2022-09-09T15:29:50;17.40;99.90
8220;DHT22;4151;51.110;7.020;2022-09-09T15:32:17;17.40;99.90
8220;DHT22;4151;51.110;7.020;2022-09-09T15:34:43;17.50;99.90
8220;DHT22;4151;51.110;7.020;2022-09-09T15:37:12;17.60;99.90
8220;DHT22;4151;51.110;7.020;2022-09-09T15:39:40;17.80;99.90
8220;DHT22;4151;51.110;7.020;2022-09-09T15:42:06;17.70;99.90
8220;DHT22;4151;51.110;7.020;2022-09-09T15:44:41;17.70;99.90
8220;DHT22;4151;51.110;7.020;2022-09-09T15:47:09;17.60;99.90
8220;DHT22;4151;51.110;7.020;2022-09-09T15:49:35;17.40;99.90
8220;DHT22;4151;51.110;7.020;2022-09-09T15:52:01;17.50;99.90
8220;DHT22;4151;51.110;7.020;2022-09-09T15:54:34;17.50;99.90
8220;DHT22;4151;51.110;7.020;2022-09-09T15:57:04;17.50;99.90
8220;DHT22;4151;51.110;7.020;2022-09-09T15:59:30;17.50;99.90
8220;DHT22;4151;51.110;7.020;2022-09-09T16:01:57;17.60;99.90
8220;DHT22;4151;51.110;7.020;2022-09-09T16:04:25;17.80;99.90
8220;DHT22;4151;51.110;7.020;2022-09-09T16:06:52;18.10;99.90
8220;DHT22;4151;51.110;7.020;2022-09-09T16:09:19;18.20;99.90
8220;DHT22;4151;51.110;7.020;2022-09-09T16:11:45;18.80;99.90
8220;DHT22;4151;51.110;7.020;2022-09-09T16:14:12;19.70;99.90
8220;DHT22;4151;51.110;7.020;2022-09-09T16:16:38;19.80;99.90
8220;DHT22;4151;51.110;7.020;2022-09-09T16:19:06;19.60;99.90
8220;DHT22;4151;51.110;7.020;2022-09-09T16:21:35;19.40;99.90
8220;DHT22;4151;51.110;7.020;2022-09-09T16:24:02;19.30;99.90
8220;DHT22;4151;51.110;7.020;2022-09-09T16:26:30;19.00;99.90
8220;DHT22;4151;51.110;7.020;2022-09-09T16:28:56;18.80;99.90
8220;DHT22;4151;51.110;7.020;2022-09-09T16:31:24;18.70;99.90
8220;DHT22;4151;51.110;7.020;2022-09-09T16:33:51;18.50;99.90
8220;DHT22;4151;51.110;7.020;2022-09-09T16:36:19;18.30;99.90
8220;DHT22;4151;51.110;7.020;2022-09-09T16:38:45;18.00;99.90
8220;DHT22;4151;51.110;7.020;2022-09-09T16:41:12;17.90;99.90
8220;DHT22;4151;51.110;7.020;2022-09-09T16:43:39;17.70;99.90
8220;DHT22;4151;51.110;7.020;2022-09-09T16:46:19;17.50;99.90
8220;DHT22;4151;51.110;7.020;2022-09-09T16:48:46;17.40;99.90
8220;DHT22;4151;51.110;7.020;2022-09-09T16:51:15;17.30;99.90
8220;DHT22;4151;51.110;7.020;2022-09-09T16:53:42;17.30;99.90
8220;DHT22;4151;51.110;7.020;2022-09-09T16:56:15;17.30;99.90
8220;DHT22;4151;51.110;7.020;2022-09-09T16:58:42;17.20;99.90
8220;DHT22;4151;51.110;7.020;2022-09-09T17:01:09;17.20;99.90
8220;DHT22;4151;51.110;7.020;2022-09-09T17:03:36;17.30;99.90
8220;DHT22;4151;51.110;7.020;2022-09-09T17:06:03;17.40;99.90
8220;DHT22;4151;51.110;7.020;2022-09-09T17:08:33;17.80;99.90
8220;DHT22;4151;51.110;7.020;2022-09-09T17:10:59;18.20;99.90
8220;DHT22;4151;51.110;7.020;2022-09-09T17:13:25;18.60;99.90
8220;DHT22;4151;51.110;7.020;2022-09-09T17:15:51;18.60;99.90
8220;DHT22;4151;51.110;7.020;2022-09-09T17:18:16;18.40;99.90
8220;DHT22;4151;51.110;7.020;2022-09-09T17:20:42;18.00;99.90
8220;DHT22;4151;51.110;7.020;2022-09-09T17:23:10;17.90;99.90
8220;DHT22;4151;51.110;7.020;2022-09-09T17:25:37;17.80;99.90
8220;DHT22;4151;51.110;7.020;2022-09-09T17:28:03;17.60;99.90
8220;DHT22;4151;51.110;7.020;2022-09-09T17:30:33;17.50;99.90
8220;DHT22;4151;51.110;7.020;2022-09-09T17:32:59;17.30;99.90
8220;DHT22;4151;51.110;7.020;2022-09-09T17:35:25;17.20;99.90
8220;DHT22;4151;51.110;7.020;2022-09-09T17:37:53;17.00;99.90
8220;DHT22;4151;51.110;7.020;2022-09-09T17:40:19;16.90;99.90
8220;DHT22;4151;51.110;7.020;2022-09-09T17:42:45;16.90;99.90
8220;DHT22;4151;51.110;7.020;2022-09-09T17:45:12;16.80;99.90
8220;DHT22;4151;51.110;7.020;2022-09-09T17:47:38;16.70;99.90
8220;DHT22;4151;51.110;7.020;2022-09-09T17:50:05;16.60;99.90
8220;DHT22;4151;51.110;7.020;2022-09-09T17:52:32;16.60;99.90
8220;DHT22;4151;51.110;7.020;2022-09-09T17:54:57;16.50;99.90
8220;DHT22;4151;51.110;7.020;2022-09-09T17:57:23;16.50;99.90
8220;DHT22;4151;51.110;7.020;2022-09-09T17:59:50;16.40;99.90
8220;DHT22;4151;51.110;7.020;2022-09-09T18:02:15;16.40;99.90
8220;DHT22;4151;51.110;7.020;2022-09-09T18:04:41;16.30;99.90
8220;DHT22;4151;51.110;7.020;2022-09-09T18:07:07;16.30;99.90
8220;DHT22;4151;51.110;7.020;2022-09-09T18:09:33;16.30;99.90
8220;DHT22;4151;51.110;7.020;2022-09-09T18:11:59;16.30;99.90
8220;DHT22;4151;51.110;7.020;2022-09-09T18:14:30;16.20;99.90
8220;DHT22;4151;51.110;7.020;2022-09-09T18:16:58;16.30;99.90
8220;DHT22;4151;51.110;7.020;2022-09-09T18:19:26;16.20;99.90
8220;DHT22;4151;51.110;7.020;2022-09-09T18:21:52;16.30;99.90
8220;DHT22;4151;51.110;7.020;2022-09-09T18:24:19;16.30;99.90
8220;DHT22;4151;51.110;7.020;2022-09-09T18:26:46;16.30;99.90
8220;DHT22;4151;51.110;7.020;2022-09-09T18:29:15;16.30;99.90
8220;DHT22;4151;51.110;7.020;2022-09-09T18:31:41;16.30;99.90
8220;DHT22;4151;51.110;7.020;2022-09-09T18:34:09;16.40;99.90